WSSL METAR and TAF | Updated Today

WSSL METAR

Seletar Airport

Observation time: 16 min. ago

WSSL 292000Z VRB02KT CAVOK 26/25 Q1008

Need help? Read our tutorial on how to read METARs or read the parsed version below.

Seletar Airport (WSSL) METAR

  • Weather conditions on Thu, 29 Sep 2022 20:00:00 +0000 (16 min. ago):
  • Present conditions: Dry
  • Clouds: Clear skies
  • Visibility: Greater than 10 km
  • Wind: Variable at 2 knots
  • Temperature: 26 celsius
  • Dew point: 25 celsius
  • Pressure: 1008 millibars
  • Remarks: None


Useful to know...

WSSL TAF

Seletar Airport

TAF WSSL 291700Z 2918/0100 18008KT 9999 FEW015 BKN020 TEMPO 3000/3004 3000 TSRA FEW012CB BKN015
Observation time: 3:16 hr. ago
Need help? Read our tutorial on how to read TAFs or read the parsed version below.

Parsed version of TAF for Seletar Airport (WSSL)

  • From 29 September at 18:00 UTC, to day 01 of the month at 00:00 UTC
  • Clouds: A few at 457 meters; broken sky at 610 meters
  • Visibility: Greater than 10 km
  • Wind: 180 degrees at 8
  • Expected to arise temporarily, from 30 September at 00:00 UTC, to day 30 of the month at 04:00 UTC
  • Clouds: A few at 366 meters, cumulonimbus; broken sky at 457 meters
  • Visibility: 3000 meters
  • Other: Thunderstorms rain